createdAt,value
2024-01-11T00:01:47.893Z,10.50
2024-01-11T00:06:51.484Z,11.03
2024-01-11T00:11:53.368Z,10.03
2024-01-11T00:16:55.264Z,9.90
2024-01-11T00:21:56.913Z,19.37
2024-01-11T00:26:58.593Z,12.33
2024-01-11T00:32:00.520Z,9.73
2024-01-11T00:37:02.198Z,10.37
2024-01-11T00:42:03.987Z,12.97
2024-01-11T00:47:05.808Z,9.93
2024-01-11T00:52:07.630Z,14.10
2024-01-11T00:57:09.325Z,11.13
2024-01-11T01:02:11.194Z,10.63
2024-01-11T01:07:12.877Z,22.17
2024-01-11T01:12:14.510Z,10.83
2024-01-11T01:17:17.218Z,13.23
2024-01-11T01:22:19.331Z,12.37
2024-01-11T01:27:23.647Z,11.97
2024-01-11T01:32:25.492Z,19.83
2024-01-11T01:37:27.497Z,11.30
2024-01-11T01:42:29.091Z,10.23
2024-01-11T01:47:31.006Z,11.53
2024-01-11T01:52:33.884Z,9.50
2024-01-11T01:57:35.845Z,11.87
2024-01-11T02:02:39.464Z,12.60
2024-01-11T02:07:41.774Z,13.30
2024-01-11T02:12:43.417Z,11.53
2024-01-11T02:17:45.514Z,11.90
2024-01-11T02:22:51.356Z,10.33
2024-01-11T02:27:53.078Z,10.07
2024-01-11T02:32:55.084Z,11.50
2024-01-11T02:37:57.284Z,19.80
2024-01-11T02:42:58.883Z,20.20
2024-01-11T02:48:00.922Z,12.97
2024-01-11T02:53:02.816Z,9.67
2024-01-11T02:58:04.569Z,19.33
2024-01-11T03:03:06.875Z,11.70
2024-01-11T03:08:08.633Z,11.07
2024-01-11T03:13:10.249Z,9.97
2024-01-11T03:18:12.109Z,8.77
2024-01-11T03:23:13.919Z,22.07
2024-01-11T03:28:16.170Z,10.50
2024-01-11T03:33:18.026Z,12.17
2024-01-11T03:38:19.900Z,10.30
2024-01-11T03:43:21.772Z,9.83
2024-01-11T03:48:23.755Z,8.60
2024-01-11T03:53:25.608Z,11.30
2024-01-11T03:58:27.848Z,12.97
2024-01-11T04:03:29.809Z,10.33
2024-01-11T04:08:31.701Z,10.60
2024-01-11T04:13:33.356Z,8.60
2024-01-11T04:18:35.452Z,10.23
2024-01-11T04:23:37.279Z,10.07
2024-01-11T04:28:39.067Z,11.40
2024-01-11T04:33:47.470Z,10.87
2024-01-11T04:38:49.277Z,13.20
2024-01-11T04:43:51.236Z,12.87
2024-01-11T04:48:53.890Z,8.63
2024-01-11T04:53:55.716Z,12.00
2024-01-11T04:58:57.467Z,9.57
2024-01-11T05:03:59.082Z,13.10
2024-01-11T05:09:00.740Z,13.90
2024-01-11T05:14:03.053Z,11.07
2024-01-11T05:19:04.893Z,10.93
2024-01-11T05:24:09.528Z,10.63
2024-01-11T05:29:12.837Z,10.43
2024-01-11T05:34:14.653Z,10.23
2024-01-11T05:39:16.635Z,9.90
2024-01-11T05:44:18.245Z,9.10
2024-01-11T05:49:19.961Z,11.60
2024-01-11T05:54:21.684Z,22.23
2024-01-11T05:59:23.576Z,8.87
2024-01-11T06:04:25.350Z,10.73
2024-01-11T06:09:27.308Z,11.47
2024-01-11T06:14:29.030Z,10.17
2024-01-11T06:19:30.916Z,23.07
2024-01-11T06:24:32.936Z,11.47
2024-01-11T06:29:34.602Z,10.93
2024-01-11T06:34:37.142Z,17.13
2024-01-11T06:39:42.829Z,11.00
2024-01-11T06:44:44.529Z,13.03
2024-01-11T06:49:46.299Z,11.53
2024-01-11T06:54:48.034Z,10.83
2024-01-11T06:59:50.495Z,10.83
2024-01-11T07:04:52.285Z,12.07
2024-01-11T07:09:56.626Z,10.20
2024-01-11T07:14:58.353Z,11.10
2024-01-11T07:20:00.446Z,11.03
2024-01-11T07:25:02.295Z,10.97
2024-01-11T07:30:04.381Z,12.93
2024-01-11T07:35:11.401Z,14.50
2024-01-11T07:40:15.260Z,21.97
2024-01-11T07:45:16.993Z,12.00
2024-01-11T07:50:18.864Z,11.50
2024-01-11T07:55:25.336Z,12.40
2024-01-11T08:00:27.163Z,13.17
2024-01-11T08:05:29.001Z,11.80
2024-01-11T08:10:33.547Z,10.37
2024-01-11T08:15:39.480Z,10.67
2024-01-11T08:20:41.780Z,11.00
2024-01-11T08:25:43.409Z,12.50
2024-01-11T08:30:45.778Z,11.07
2024-01-11T08:35:48.112Z,11.07
2024-01-11T08:40:50.228Z,9.30
2024-01-11T08:45:51.875Z,10.33
2024-01-11T08:50:54.790Z,21.77
2024-01-11T08:55:56.589Z,11.00
2024-01-11T09:00:58.718Z,11.03
2024-01-11T09:06:00.672Z,11.40
2024-01-11T09:11:04.253Z,12.73
2024-01-11T09:16:08.001Z,10.97
2024-01-11T09:21:09.642Z,10.63
2024-01-11T09:26:11.583Z,11.43
2024-01-11T09:31:13.315Z,13.90
2024-01-11T09:36:15.233Z,12.20
2024-01-11T09:41:17.427Z,15.20
2024-01-11T09:46:19.489Z,16.73
2024-01-11T09:51:21.530Z,10.93
2024-01-11T09:56:24.561Z,12.80
2024-01-11T10:01:26.471Z,11.70
2024-01-11T10:06:28.641Z,16.80
2024-01-11T10:11:30.374Z,16.50
2024-01-11T10:16:32.890Z,15.67
2024-01-11T10:21:34.560Z,17.10
2024-01-11T10:26:37.023Z,14.97
2024-01-11T10:31:38.724Z,16.90
2024-01-11T10:36:42.181Z,20.83
2024-01-11T10:41:49.106Z,15.63
2024-01-11T10:46:51.845Z,17.50
2024-01-11T10:52:03.485Z,17.53
2024-01-11T10:57:06.467Z,14.73
2024-01-11T11:02:13.082Z,17.33
2024-01-11T11:07:16.137Z,14.97
2024-01-11T11:12:17.909Z,19.47
2024-01-11T11:17:19.767Z,17.63
2024-01-11T11:22:22.856Z,16.00
2024-01-11T11:27:24.465Z,23.03
2024-01-11T11:32:39.417Z,17.70
2024-01-11T11:37:41.408Z,19.40
2024-01-11T11:42:43.852Z,17.33
2024-01-11T11:47:47.184Z,18.00
2024-01-11T11:52:55.180Z,17.53
2024-01-11T11:57:56.810Z,20.87
2024-01-11T12:02:59.379Z,19.10
2024-01-11T12:08:01.794Z,22.73
2024-01-11T12:13:03.622Z,19.87
2024-01-11T12:18:05.644Z,21.97
2024-01-11T12:23:07.937Z,23.93
2024-01-11T12:28:13.546Z,21.67
2024-01-11T12:33:15.378Z,22.50
2024-01-11T12:38:17.142Z,19.10
2024-01-11T12:43:18.943Z,21.23
2024-01-11T12:48:21.627Z,25.27
2024-01-11T12:53:25.502Z,22.33
2024-01-11T12:58:27.696Z,23.57
2024-01-11T13:03:29.776Z,25.97
2024-01-11T13:08:33.001Z,19.67
2024-01-11T13:13:35.993Z,26.30
2024-01-11T13:18:37.982Z,26.13
2024-01-11T13:23:41.347Z,24.63
2024-01-11T13:28:43.329Z,21.77
2024-01-11T13:33:45.385Z,26.00
2024-01-11T13:38:47.287Z,28.63
2024-01-11T13:43:49.141Z,25.07
2024-01-11T13:48:50.880Z,24.77
2024-01-11T13:53:52.633Z,23.73
2024-01-11T13:58:54.379Z,24.70
2024-01-11T14:03:56.268Z,23.00
2024-01-11T14:08:58.158Z,23.73
2024-01-11T14:14:00.750Z,26.90
2024-01-11T14:19:03.802Z,25.80
2024-01-11T14:24:08.490Z,23.57
2024-01-11T14:29:10.253Z,24.90
2024-01-11T14:34:13.197Z,24.57
2024-01-11T14:39:15.531Z,27.30
2024-01-11T14:44:17.237Z,24.80
2024-01-11T14:49:19.015Z,25.83
2024-01-11T14:54:21.551Z,20.90
2024-01-11T14:59:25.251Z,24.77
2024-01-11T15:04:27.363Z,23.23
2024-01-11T15:09:31.046Z,21.43
2024-01-11T15:14:32.878Z,23.10
2024-01-11T15:19:34.514Z,23.13
2024-01-11T15:24:36.520Z,23.20
2024-01-11T15:29:42.050Z,23.30
2024-01-11T15:34:43.947Z,25.10
2024-01-11T15:39:45.596Z,26.43
2024-01-11T15:44:47.254Z,24.07
2024-01-11T15:49:48.953Z,23.97
2024-01-11T15:54:50.720Z,28.07
2024-01-11T15:59:52.548Z,20.77
2024-01-11T16:04:54.260Z,23.13
2024-01-11T16:09:56.042Z,23.60
2024-01-11T16:14:59.349Z,24.10
2024-01-11T16:20:01.029Z,25.83
2024-01-11T16:25:03.041Z,25.23
2024-01-11T16:30:05.498Z,27.70
2024-01-11T16:35:07.546Z,24.27
2024-01-11T16:40:11.197Z,29.40
2024-01-11T16:45:12.978Z,29.33
2024-01-11T16:50:14.677Z,35.87
2024-01-11T16:55:16.352Z,26.97
2024-01-11T17:00:20.339Z,25.00
2024-01-11T17:05:22.601Z,28.87
2024-01-11T17:10:25.248Z,25.90
2024-01-11T17:15:28.047Z,24.83
2024-01-11T17:20:30.139Z,26.13
2024-01-11T17:25:31.824Z,25.77
2024-01-11T17:30:33.424Z,35.40
2024-01-11T17:35:35.122Z,27.60
2024-01-11T17:40:37.134Z,28.70
2024-01-11T17:45:38.835Z,25.83
2024-01-11T17:50:40.522Z,25.37
2024-01-11T17:55:42.319Z,20.83
2024-01-11T18:00:44.179Z,24.37
2024-01-11T18:05:47.151Z,20.60
2024-01-11T18:10:48.782Z,20.97
2024-01-11T18:15:51.928Z,20.13
2024-01-11T18:20:53.829Z,20.37
2024-01-11T18:25:56.678Z,18.93
2024-01-11T18:30:58.494Z,15.83
2024-01-11T18:36:00.400Z,19.80
2024-01-11T18:41:02.272Z,17.37
2024-01-11T18:46:04.125Z,17.50
2024-01-11T18:51:08.073Z,18.63
2024-01-11T18:56:14.973Z,15.13
2024-01-11T19:01:16.720Z,16.77
2024-01-11T19:06:18.543Z,17.90
2024-01-11T19:11:20.483Z,18.23
2024-01-11T19:16:22.661Z,15.67
2024-01-11T19:21:24.673Z,19.47
2024-01-11T19:26:27.639Z,15.87
2024-01-11T19:31:30.060Z,21.47
2024-01-11T19:36:31.728Z,19.67
2024-01-11T19:41:33.470Z,13.70
2024-01-11T19:46:35.136Z,26.27
2024-01-11T19:51:36.869Z,18.27
2024-01-11T19:56:39.172Z,17.30
2024-01-11T20:01:41.315Z,21.20
2024-01-11T20:06:44.686Z,19.53
2024-01-11T20:11:46.601Z,19.20
2024-01-11T20:16:48.298Z,17.73
2024-01-11T20:21:50.211Z,16.50
2024-01-11T20:26:52.618Z,16.47
2024-01-11T20:31:54.227Z,17.73
2024-01-11T20:36:56.603Z,22.50
2024-01-11T20:41:59.055Z,13.70
2024-01-11T20:47:00.847Z,11.67
2024-01-11T20:52:02.529Z,16.43
2024-01-11T20:57:06.366Z,13.77
2024-01-11T21:02:08.012Z,13.47
2024-01-11T21:07:09.935Z,14.77
2024-01-11T21:12:11.846Z,16.20
2024-01-11T21:17:13.570Z,14.33
2024-01-11T21:22:15.271Z,16.77
2024-01-11T21:27:17.189Z,16.63
2024-01-11T21:32:20.027Z,17.73
2024-01-11T21:37:21.797Z,15.10
2024-01-11T21:42:24.206Z,18.47
2024-01-11T21:47:26.156Z,12.30
2024-01-11T21:52:27.808Z,11.60
2024-01-11T21:57:29.634Z,13.83
2024-01-11T22:02:31.996Z,12.70
2024-01-11T22:07:33.608Z,15.97
2024-01-11T22:12:35.192Z,11.80
2024-01-11T22:17:37.199Z,12.00
2024-01-11T22:22:38.892Z,12.77
2024-01-11T22:27:42.780Z,14.67
2024-01-11T22:32:45.123Z,12.33
2024-01-11T22:37:46.872Z,12.03
2024-01-11T22:42:48.506Z,18.50
2024-01-11T22:47:50.281Z,15.20
2024-01-11T22:52:51.860Z,12.37
2024-01-11T22:57:53.473Z,13.73
2024-01-11T23:02:55.152Z,13.93
2024-01-11T23:07:56.840Z,12.67
2024-01-11T23:12:58.531Z,15.00
2024-01-11T23:18:00.925Z,13.90
2024-01-11T23:23:02.931Z,20.20
2024-01-11T23:28:04.860Z,14.83
2024-01-11T23:33:10.328Z,18.33
2024-01-11T23:38:12.294Z,17.30
2024-01-11T23:43:13.953Z,17.37
2024-01-11T23:48:15.780Z,13.97
2024-01-11T23:53:17.505Z,17.30
2024-01-11T23:58:19.147Z,17.67
